sensor_id;sensor_type;location;lat;lon;timestamp;pressure;altitude;pressure_sealevel;temperature;humidity
51524;BME280;37610;51.790;21.590;2022-08-01T00:00:39;99630.11;;;15.95;82.99
51524;BME280;37610;51.790;21.590;2022-08-01T00:04:43;99624.98;;;15.85;83.02
51524;BME280;37610;51.790;21.590;2022-08-01T00:08:44;99626.31;;;15.78;83.16
51524;BME280;37610;51.790;21.590;2022-08-01T00:12:45;99628.31;;;15.81;82.54
51524;BME280;37610;51.790;21.590;2022-08-01T00:16:47;99627.57;;;15.80;83.00
51524;BME280;37610;51.790;21.590;2022-08-01T00:20:48;99629.34;;;15.77;83.30
51524;BME280;37610;51.790;21.590;2022-08-01T00:24:50;99631.90;;;15.77;82.73
51524;BME280;37610;51.790;21.590;2022-08-01T00:28:51;99624.30;;;15.78;82.83
51524;BME280;37610;51.790;21.590;2022-08-01T00:32:52;99623.92;;;15.85;82.83
51524;BME280;37610;51.790;21.590;2022-08-01T00:36:54;99624.04;;;15.87;82.66
51524;BME280;37610;51.790;21.590;2022-08-01T00:40:55;99625.81;;;15.88;82.34
51524;BME280;37610;51.790;21.590;2022-08-01T00:44:56;99623.05;;;15.89;82.74
51524;BME280;37610;51.790;21.590;2022-08-01T00:48:58;99627.08;;;15.86;83.06
51524;BME280;37610;51.790;21.590;2022-08-01T00:53:00;99628.88;;;15.86;82.51
51524;BME280;37610;51.790;21.590;2022-08-01T00:57:02;99624.72;;;15.85;82.28
51524;BME280;37610;51.790;21.590;2022-08-01T01:01:03;99629.40;;;15.85;82.55
51524;BME280;37610;51.790;21.590;2022-08-01T01:05:05;99631.72;;;15.88;82.32
51524;BME280;37610;51.790;21.590;2022-08-01T01:17:21;99638.67;;;15.99;82.17
51524;BME280;37610;51.790;21.590;2022-08-01T01:21:35;99638.23;;;16.06;82.18
51524;BME280;37610;51.790;21.590;2022-08-01T01:29:44;99640.45;;;16.10;81.77
51524;BME280;37610;51.790;21.590;2022-08-01T01:33:46;99643.33;;;16.10;81.57
51524;BME280;37610;51.790;21.590;2022-08-01T01:37:52;99639.63;;;16.09;81.54
51524;BME280;37610;51.790;21.590;2022-08-01T01:41:55;99640.24;;;16.10;81.58
51524;BME280;37610;51.790;21.590;2022-08-01T01:45:57;99642.61;;;16.14;81.52
51524;BME280;37610;51.790;21.590;2022-08-01T01:50:00;99642.20;;;16.16;81.55
51524;BME280;37610;51.790;21.590;2022-08-01T01:54:03;99641.69;;;16.11;81.36
51524;BME280;37610;51.790;21.590;2022-08-01T01:58:05;99643.29;;;16.11;81.28
51524;BME280;37610;51.790;21.590;2022-08-01T02:02:08;99646.86;;;16.13;81.16
51524;BME280;37610;51.790;21.590;2022-08-01T02:06:11;99647.83;;;16.13;81.13
51524;BME280;37610;51.790;21.590;2022-08-01T02:10:14;99648.51;;;16.12;81.25
51524;BME280;37610;51.790;21.590;2022-08-01T02:14:17;99646.65;;;16.13;81.17
51524;BME280;37610;51.790;21.590;2022-08-01T02:18:19;99645.82;;;16.15;81.18
51524;BME280;37610;51.790;21.590;2022-08-01T02:22:45;99644.21;;;16.16;81.06
51524;BME280;37610;51.790;21.590;2022-08-01T02:26:44;99646.30;;;16.15;81.11
51524;BME280;37610;51.790;21.590;2022-08-01T02:30:47;99644.87;;;16.19;81.05
51524;BME280;37610;51.790;21.590;2022-08-01T02:34:50;99642.52;;;16.15;80.77
51524;BME280;37610;51.790;21.590;2022-08-01T02:38:52;99647.06;;;16.11;80.80
51524;BME280;37610;51.790;21.590;2022-08-01T02:42:55;99648.38;;;16.06;80.79
51524;BME280;37610;51.790;21.590;2022-08-01T02:47:00;99650.54;;;16.04;81.04
51524;BME280;37610;51.790;21.590;2022-08-01T02:51:03;99651.84;;;16.01;80.83
51524;BME280;37610;51.790;21.590;2022-08-01T02:55:06;99657.20;;;15.97;80.78
51524;BME280;37610;51.790;21.590;2022-08-01T02:59:09;99663.89;;;15.97;80.84
51524;BME280;37610;51.790;21.590;2022-08-01T03:03:13;99665.64;;;15.94;80.89
51524;BME280;37610;51.790;21.590;2022-08-01T03:07:14;99670.88;;;15.91;81.15
51524;BME280;37610;51.790;21.590;2022-08-01T03:11:17;99671.59;;;15.87;80.93
51524;BME280;37610;51.790;21.590;2022-08-01T03:15:19;99668.64;;;15.84;81.12
51524;BME280;37610;51.790;21.590;2022-08-01T03:19:22;99665.16;;;15.81;80.84
51524;BME280;37610;51.790;21.590;2022-08-01T03:23:25;99664.70;;;15.78;80.87
51524;BME280;37610;51.790;21.590;2022-08-01T03:27:27;99666.49;;;15.76;81.00
51524;BME280;37610;51.790;21.590;2022-08-01T03:31:29;99662.48;;;15.73;81.30
51524;BME280;37610;51.790;21.590;2022-08-01T03:35:36;99668.78;;;15.68;81.17
51524;BME280;37610;51.790;21.590;2022-08-01T03:39:44;99668.45;;;15.67;81.19
51524;BME280;37610;51.790;21.590;2022-08-01T03:43:48;99676.27;;;15.67;81.32
51524;BME280;37610;51.790;21.590;2022-08-01T03:47:56;99677.55;;;15.67;81.31
51524;BME280;37610;51.790;21.590;2022-08-01T03:52:02;99683.71;;;15.66;81.44
51524;BME280;37610;51.790;21.590;2022-08-01T03:56:05;99679.36;;;15.68;81.33
51524;BME280;37610;51.790;21.590;2022-08-01T04:00:09;99677.98;;;15.73;81.25
51524;BME280;37610;51.790;21.590;2022-08-01T04:04:12;99687.05;;;15.75;81.05
51524;BME280;37610;51.790;21.590;2022-08-01T04:08:14;99692.91;;;15.72;80.96
51524;BME280;37610;51.790;21.590;2022-08-01T04:12:15;99696.22;;;15.72;81.02
51524;BME280;37610;51.790;21.590;2022-08-01T04:16:16;99698.89;;;15.73;81.10
51524;BME280;37610;51.790;21.590;2022-08-01T04:20:17;99700.30;;;15.70;80.91
51524;BME280;37610;51.790;21.590;2022-08-01T04:24:19;99701.33;;;15.66;81.05
51524;BME280;37610;51.790;21.590;2022-08-01T04:28:21;99707.83;;;15.66;80.90
51524;BME280;37610;51.790;21.590;2022-08-01T04:32:25;99712.12;;;15.70;81.00
51524;BME280;37610;51.790;21.590;2022-08-01T04:36:27;99716.76;;;15.75;80.88
51524;BME280;37610;51.790;21.590;2022-08-01T04:40:29;99721.04;;;15.78;80.83
51524;BME280;37610;51.790;21.590;2022-08-01T04:44:32;99721.89;;;15.78;80.61
51524;BME280;37610;51.790;21.590;2022-08-01T04:48:37;99718.63;;;15.81;80.62
51524;BME280;37610;51.790;21.590;2022-08-01T04:52:39;99716.86;;;15.88;80.68
51524;BME280;37610;51.790;21.590;2022-08-01T04:56:43;99718.91;;;15.96;80.69
51524;BME280;37610;51.790;21.590;2022-08-01T05:00:47;99720.96;;;16.00;80.50
51524;BME280;37610;51.790;21.590;2022-08-01T05:04:48;99724.13;;;16.09;80.44
51524;BME280;37610;51.790;21.590;2022-08-01T05:08:50;99730.77;;;16.15;80.24
51524;BME280;37610;51.790;21.590;2022-08-01T05:12:51;99732.00;;;16.20;80.16
51524;BME280;37610;51.790;21.590;2022-08-01T05:16:53;99734.33;;;16.25;80.01
51524;BME280;37610;51.790;21.590;2022-08-01T05:20:54;99735.02;;;16.25;79.86
51524;BME280;37610;51.790;21.590;2022-08-01T05:24:56;99740.75;;;16.21;79.46
51524;BME280;37610;51.790;21.590;2022-08-01T05:28:58;99734.05;;;16.17;79.72
51524;BME280;37610;51.790;21.590;2022-08-01T05:32:59;99734.45;;;16.22;79.87
51524;BME280;37610;51.790;21.590;2022-08-01T05:37:00;99733.55;;;16.22;79.76
51524;BME280;37610;51.790;21.590;2022-08-01T05:41:02;99737.73;;;16.25;79.82
51524;BME280;37610;51.790;21.590;2022-08-01T05:45:03;99744.53;;;16.29;79.73
51524;BME280;37610;51.790;21.590;2022-08-01T05:49:05;99746.48;;;16.39;79.82
51524;BME280;37610;51.790;21.590;2022-08-01T05:53:06;99751.79;;;16.43;79.45
51524;BME280;37610;51.790;21.590;2022-08-01T05:57:08;99750.44;;;16.49;79.49
51524;BME280;37610;51.790;21.590;2022-08-01T06:01:09;99752.52;;;16.59;79.36
51524;BME280;37610;51.790;21.590;2022-08-01T06:05:11;99753.66;;;16.63;79.09
51524;BME280;37610;51.790;21.590;2022-08-01T06:09:12;99751.09;;;16.72;79.08
51524;BME280;37610;51.790;21.590;2022-08-01T06:13:14;99751.38;;;16.86;79.13
51524;BME280;37610;51.790;21.590;2022-08-01T06:17:15;99757.38;;;16.97;78.65
51524;BME280;37610;51.790;21.590;2022-08-01T06:21:17;99761.30;;;17.06;78.21
51524;BME280;37610;51.790;21.590;2022-08-01T06:25:18;99763.88;;;17.09;77.97
51524;BME280;37610;51.790;21.590;2022-08-01T06:29:19;99768.95;;;17.10;78.09
51524;BME280;37610;51.790;21.590;2022-08-01T06:33:21;99769.66;;;17.13;78.02
51524;BME280;37610;51.790;21.590;2022-08-01T06:37:23;99767.04;;;17.10;77.81
51524;BME280;37610;51.790;21.590;2022-08-01T06:41:24;99776.13;;;17.04;77.55
51524;BME280;37610;51.790;21.590;2022-08-01T06:45:26;99777.09;;;16.94;77.40
51524;BME280;37610;51.790;21.590;2022-08-01T06:49:28;99778.89;;;16.91;77.47
51524;BME280;37610;51.790;21.590;2022-08-01T06:53:29;99776.65;;;16.93;78.05
51524;BME280;37610;51.790;21.590;2022-08-01T06:57:30;99781.91;;;16.99;77.86
51524;BME280;37610;51.790;21.590;2022-08-01T07:01:32;99777.68;;;17.16;77.97
51524;BME280;37610;51.790;21.590;2022-08-01T07:05:33;99769.81;;;17.37;77.28
51524;BME280;37610;51.790;21.590;2022-08-01T07:09:34;99768.79;;;17.49;76.53
51524;BME280;37610;51.790;21.590;2022-08-01T07:13:36;99767.10;;;17.63;76.21
51524;BME280;37610;51.790;21.590;2022-08-01T07:17:38;99773.10;;;17.73;76.00
51524;BME280;37610;51.790;21.590;2022-08-01T07:21:40;99773.37;;;17.73;75.80
51524;BME280;37610;51.790;21.590;2022-08-01T07:25:41;99769.64;;;17.75;75.56
51524;BME280;37610;51.790;21.590;2022-08-01T07:29:42;99768.70;;;17.88;75.69
51524;BME280;37610;51.790;21.590;2022-08-01T07:33:44;99765.83;;;18.09;75.77
51524;BME280;37610;51.790;21.590;2022-08-01T07:37:45;99766.32;;;18.19;75.26
51524;BME280;37610;51.790;21.590;2022-08-01T07:41:47;99766.96;;;18.17;74.90
51524;BME280;37610;51.790;21.590;2022-08-01T07:45:48;99768.73;;;18.15;74.86
51524;BME280;37610;51.790;21.590;2022-08-01T07:49:50;99765.61;;;18.11;74.61
51524;BME280;37610;51.790;21.590;2022-08-01T07:53:52;99767.39;;;18.13;74.74
51524;BME280;37610;51.790;21.590;2022-08-01T07:57:53;99766.22;;;18.24;74.85
51524;BME280;37610;51.790;21.590;2022-08-01T08:01:54;99766.20;;;18.38;74.83
51524;BME280;37610;51.790;21.590;2022-08-01T08:05:56;99765.13;;;18.44;73.96
51524;BME280;37610;51.790;21.590;2022-08-01T08:09:57;99765.73;;;18.50;74.05
51524;BME280;37610;51.790;21.590;2022-08-01T08:13:58;99764.62;;;18.62;73.62
51524;BME280;37610;51.790;21.590;2022-08-01T08:18:00;99765.98;;;18.67;73.80
51524;BME280;37610;51.790;21.590;2022-08-01T08:22:01;99770.95;;;18.76;73.44
51524;BME280;37610;51.790;21.590;2022-08-01T08:26:03;99768.48;;;18.76;71.92
51524;BME280;37610;51.790;21.590;2022-08-01T08:30:04;99774.36;;;18.82;71.99
51524;BME280;37610;51.790;21.590;2022-08-01T08:34:08;99773.58;;;18.95;70.99
51524;BME280;37610;51.790;21.590;2022-08-01T08:38:09;99773.95;;;19.02;68.89
51524;BME280;37610;51.790;21.590;2022-08-01T08:42:11;99779.80;;;19.09;67.98
51524;BME280;37610;51.790;21.590;2022-08-01T08:46:12;99786.05;;;19.15;67.41
51524;BME280;37610;51.790;21.590;2022-08-01T08:50:14;99780.93;;;19.23;68.21
51524;BME280;37610;51.790;21.590;2022-08-01T08:54:17;99780.56;;;19.35;67.82
51524;BME280;37610;51.790;21.590;2022-08-01T08:58:19;99782.32;;;19.47;67.17
51524;BME280;37610;51.790;21.590;2022-08-01T09:02:21;99779.60;;;19.54;65.53
51524;BME280;37610;51.790;21.590;2022-08-01T09:06:22;99780.71;;;19.66;66.38
51524;BME280;37610;51.790;21.590;2022-08-01T09:10:24;99786.30;;;19.74;65.75
51524;BME280;37610;51.790;21.590;2022-08-01T09:14:25;99784.67;;;19.83;65.19
51524;BME280;37610;51.790;21.590;2022-08-01T09:22:35;99797.80;;;20.02;64.23
51524;BME280;37610;51.790;21.590;2022-08-01T09:26:36;99798.14;;;20.08;64.44
51524;BME280;37610;51.790;21.590;2022-08-01T09:30:37;99806.45;;;20.14;62.38
51524;BME280;37610;51.790;21.590;2022-08-01T09:34:40;99806.05;;;20.17;59.69
51524;BME280;37610;51.790;21.590;2022-08-01T09:38:41;99805.36;;;20.26;60.65
51524;BME280;37610;51.790;21.590;2022-08-01T09:42:43;99814.30;;;20.36;60.39
51524;BME280;37610;51.790;21.590;2022-08-01T09:46:54;99809.14;;;20.46;61.23
51524;BME280;37610;51.790;21.590;2022-08-01T09:50:57;99806.79;;;20.57;59.20
51524;BME280;37610;51.790;21.590;2022-08-01T09:55:01;99812.85;;;20.69;59.66
51524;BME280;37610;51.790;21.590;2022-08-01T09:59:03;99812.73;;;20.86;58.75
51524;BME280;37610;51.790;21.590;2022-08-01T10:07:21;99805.13;;;21.12;59.43
51524;BME280;37610;51.790;21.590;2022-08-01T10:11:23;99803.59;;;21.15;58.17
51524;BME280;37610;51.790;21.590;2022-08-01T10:15:25;99805.31;;;21.16;57.43
51524;BME280;37610;51.790;21.590;2022-08-01T10:19:28;99801.95;;;21.24;58.70
51524;BME280;37610;51.790;21.590;2022-08-01T10:23:34;99803.89;;;21.32;58.61
51524;BME280;37610;51.790;21.590;2022-08-01T10:27:35;99799.61;;;21.48;58.56
51524;BME280;37610;51.790;21.590;2022-08-01T10:31:37;99799.59;;;21.61;57.20
51524;BME280;37610;51.790;21.590;2022-08-01T10:35:39;99796.54;;;21.73;58.21
51524;BME280;37610;51.790;21.590;2022-08-01T10:39:41;99804.31;;;21.82;57.05
51524;BME280;37610;51.790;21.590;2022-08-01T10:43:42;99795.44;;;21.81;57.13
51524;BME280;37610;51.790;21.590;2022-08-01T10:51:45;99792.16;;;21.99;53.75
51524;BME280;37610;51.790;21.590;2022-08-01T10:55:51;99792.98;;;22.08;53.72
51524;BME280;37610;51.790;21.590;2022-08-01T10:59:53;99790.07;;;22.26;53.38
51524;BME280;37610;51.790;21.590;2022-08-01T11:08:03;99786.77;;;22.59;52.54
51524;BME280;37610;51.790;21.590;2022-08-01T11:12:11;99791.84;;;22.70;51.04
51524;BME280;37610;51.790;21.590;2022-08-01T11:16:46;99787.80;;;22.99;50.65
51524;BME280;37610;51.790;21.590;2022-08-01T11:20:43;99796.73;;;23.11;52.06
51524;BME280;37610;51.790;21.590;2022-08-01T11:24:58;99792.41;;;23.03;52.88
51524;BME280;37610;51.790;21.590;2022-08-01T11:29:15;99784.52;;;23.05;52.90
51524;BME280;37610;51.790;21.590;2022-08-01T11:33:18;99788.72;;;23.26;51.85
51524;BME280;37610;51.790;21.590;2022-08-01T11:37:26;99789.66;;;23.44;50.60
51524;BME280;37610;51.790;21.590;2022-08-01T11:41:29;99790.28;;;23.49;49.45
51524;BME280;37610;51.790;21.590;2022-08-01T11:49:51;99789.64;;;23.65;47.77
51524;BME280;37610;51.790;21.590;2022-08-01T11:53:55;99784.33;;;23.90;49.98
51524;BME280;37610;51.790;21.590;2022-08-01T12:02:01;99787.98;;;24.19;47.77
51524;BME280;37610;51.790;21.590;2022-08-01T12:06:03;99787.08;;;24.03;47.84
51524;BME280;37610;51.790;21.590;2022-08-01T12:10:05;99791.28;;;23.89;49.19
51524;BME280;37610;51.790;21.590;2022-08-01T12:14:07;99783.87;;;23.83;48.80
51524;BME280;37610;51.790;21.590;2022-08-01T12:18:08;99785.92;;;23.92;48.24
51524;BME280;37610;51.790;21.590;2022-08-01T12:22:13;99782.48;;;23.99;47.53
51524;BME280;37610;51.790;21.590;2022-08-01T12:26:15;99787.18;;;24.31;46.45
51524;BME280;37610;51.790;21.590;2022-08-01T12:30:17;99782.70;;;24.51;46.74
51524;BME280;37610;51.790;21.590;2022-08-01T12:34:25;99783.94;;;24.61;46.32
51524;BME280;37610;51.790;21.590;2022-08-01T12:38:28;99777.32;;;24.62;46.33
51524;BME280;37610;51.790;21.590;2022-08-01T12:42:36;99767.95;;;24.75;44.97
51524;BME280;37610;51.790;21.590;2022-08-01T12:46:37;99769.23;;;24.99;44.61
51524;BME280;37610;51.790;21.590;2022-08-01T12:50:39;99768.45;;;25.17;42.92
51524;BME280;37610;51.790;21.590;2022-08-01T12:55:00;99760.85;;;25.27;39.66
51524;BME280;37610;51.790;21.590;2022-08-01T12:59:18;99763.44;;;25.54;41.69
51524;BME280;37610;51.790;21.590;2022-08-01T13:03:20;99767.39;;;25.84;41.79
51524;BME280;37610;51.790;21.590;2022-08-01T13:07:22;99764.64;;;26.06;42.53
51524;BME280;37610;51.790;21.590;2022-08-01T13:11:23;99758.67;;;26.25;43.72
51524;BME280;37610;51.790;21.590;2022-08-01T13:15:32;99758.77;;;26.87;42.84
51524;BME280;37610;51.790;21.590;2022-08-01T13:19:43;99762.69;;;27.36;42.44
51524;BME280;37610;51.790;21.590;2022-08-01T13:28:14;99758.77;;;29.57;36.95
51524;BME280;37610;51.790;21.590;2022-08-01T13:32:20;99754.92;;;32.14;39.82
51524;BME280;37610;51.790;21.590;2022-08-01T13:36:21;99758.80;;;35.14;34.09
51524;BME280;37610;51.790;21.590;2022-08-01T13:40:24;99758.36;;;36.68;30.46
51524;BME280;37610;51.790;21.590;2022-08-01T13:44:26;99761.64;;;37.55;27.26
51524;BME280;37610;51.790;21.590;2022-08-01T13:48:27;99766.89;;;37.01;28.02
51524;BME280;37610;51.790;21.590;2022-08-01T13:52:28;99766.05;;;36.12;26.79
51524;BME280;37610;51.790;21.590;2022-08-01T13:56:30;99771.09;;;36.58;29.95
51524;BME280;37610;51.790;21.590;2022-08-01T14:00:31;99770.54;;;38.45;27.48
51524;BME280;37610;51.790;21.590;2022-08-01T14:04:33;99773.26;;;40.11;23.83
51524;BME280;37610;51.790;21.590;2022-08-01T14:08:34;99774.75;;;41.88;23.92
51524;BME280;37610;51.790;21.590;2022-08-01T14:12:35;99777.63;;;43.27;21.38
51524;BME280;37610;51.790;21.590;2022-08-01T14:16:37;99777.63;;;44.30;20.99
51524;BME280;37610;51.790;21.590;2022-08-01T14:20:38;99780.77;;;44.59;21.41
51524;BME280;37610;51.790;21.590;2022-08-01T14:24:40;99778.91;;;43.07;20.55
51524;BME280;37610;51.790;21.590;2022-08-01T14:28:41;99783.71;;;41.45;21.46
51524;BME280;37610;51.790;21.590;2022-08-01T14:32:42;99791.17;;;40.75;21.42
51524;BME280;37610;51.790;21.590;2022-08-01T14:36:43;99791.53;;;41.01;22.14
51524;BME280;37610;51.790;21.590;2022-08-01T14:40:45;99786.95;;;41.90;21.43
51524;BME280;37610;51.790;21.590;2022-08-01T14:44:52;99791.91;;;42.68;21.62
51524;BME280;37610;51.790;21.590;2022-08-01T14:48:53;99791.46;;;43.83;18.55
51524;BME280;37610;51.790;21.590;2022-08-01T14:52:55;99791.50;;;45.20;19.74
51524;BME280;37610;51.790;21.590;2022-08-01T14:56:56;99786.06;;;46.59;18.40
51524;BME280;37610;51.790;21.590;2022-08-01T15:00:58;99789.23;;;47.38;18.18
51524;BME280;37610;51.790;21.590;2022-08-01T15:04:59;99791.40;;;47.43;16.16
51524;BME280;37610;51.790;21.590;2022-08-01T15:09:01;99789.91;;;47.21;16.83
51524;BME280;37610;51.790;21.590;2022-08-01T15:13:02;99784.43;;;46.54;16.58
51524;BME280;37610;51.790;21.590;2022-08-01T15:17:04;99786.30;;;45.72;16.65
51524;BME280;37610;51.790;21.590;2022-08-01T15:21:06;99792.31;;;43.57;16.83
51524;BME280;37610;51.790;21.590;2022-08-01T15:25:07;99791.75;;;43.26;18.13
51524;BME280;37610;51.790;21.590;2022-08-01T15:29:08;99790.70;;;42.63;18.77
51524;BME280;37610;51.790;21.590;2022-08-01T15:33:10;99790.55;;;41.35;19.24
51524;BME280;37610;51.790;21.590;2022-08-01T15:37:11;99790.34;;;40.29;20.41
51524;BME280;37610;51.790;21.590;2022-08-01T15:41:13;99787.27;;;39.28;21.09
51524;BME280;37610;51.790;21.590;2022-08-01T15:45:14;99791.20;;;38.76;21.86
51524;BME280;37610;51.790;21.590;2022-08-01T15:49:19;99788.17;;;38.28;22.35
51524;BME280;37610;51.790;21.590;2022-08-01T15:53:23;99787.56;;;37.63;22.81
51524;BME280;37610;51.790;21.590;2022-08-01T15:57:24;99788.31;;;36.53;24.02
51524;BME280;37610;51.790;21.590;2022-08-01T16:01:26;99791.44;;;36.14;24.65
51524;BME280;37610;51.790;21.590;2022-08-01T16:05:27;99784.45;;;35.64;25.32
51524;BME280;37610;51.790;21.590;2022-08-01T16:09:29;99788.81;;;34.84;25.32
51524;BME280;37610;51.790;21.590;2022-08-01T16:13:30;99787.48;;;34.18;26.25
51524;BME280;37610;51.790;21.590;2022-08-01T16:17:32;99786.92;;;33.40;27.66
51524;BME280;37610;51.790;21.590;2022-08-01T16:21:33;99791.38;;;32.96;28.46
51524;BME280;37610;51.790;21.590;2022-08-01T16:25:35;99792.61;;;32.60;28.31
51524;BME280;37610;51.790;21.590;2022-08-01T16:29:36;99795.77;;;32.29;28.94
51524;BME280;37610;51.790;21.590;2022-08-01T16:33:37;99797.86;;;31.94;29.08
51524;BME280;37610;51.790;21.590;2022-08-01T16:37:39;99801.17;;;31.56;30.18
51524;BME280;37610;51.790;21.590;2022-08-01T16:41:40;99800.48;;;31.17;31.31
51524;BME280;37610;51.790;21.590;2022-08-01T16:45:41;99804.39;;;31.01;31.27
51524;BME280;37610;51.790;21.590;2022-08-01T16:49:43;99803.39;;;30.93;31.98
51524;BME280;37610;51.790;21.590;2022-08-01T16:53:44;99808.71;;;30.48;31.97
51524;BME280;37610;51.790;21.590;2022-08-01T16:57:46;99814.03;;;29.65;32.65
51524;BME280;37610;51.790;21.590;2022-08-01T17:01:47;99811.28;;;28.97;33.62
51524;BME280;37610;51.790;21.590;2022-08-01T17:05:48;99809.77;;;28.33;34.30
51524;BME280;37610;51.790;21.590;2022-08-01T17:09:50;99811.46;;;27.73;34.96
51524;BME280;37610;51.790;21.590;2022-08-01T17:13:51;99817.02;;;27.27;36.12
51524;BME280;37610;51.790;21.590;2022-08-01T17:17:53;99820.38;;;26.85;36.90
51524;BME280;37610;51.790;21.590;2022-08-01T17:21:55;99821.97;;;26.47;37.40
51524;BME280;37610;51.790;21.590;2022-08-01T17:25:56;99828.06;;;26.17;38.98
51524;BME280;37610;51.790;21.590;2022-08-01T17:29:58;99828.70;;;25.85;40.06
51524;BME280;37610;51.790;21.590;2022-08-01T17:33:59;99830.73;;;25.61;40.22
51524;BME280;37610;51.790;21.590;2022-08-01T17:38:02;99829.80;;;25.32;40.71
51524;BME280;37610;51.790;21.590;2022-08-01T17:42:03;99836.63;;;24.91;45.75
51524;BME280;37610;51.790;21.590;2022-08-01T17:46:05;99834.05;;;24.35;46.78
51524;BME280;37610;51.790;21.590;2022-08-01T17:50:07;99833.63;;;24.07;45.22
51524;BME280;37610;51.790;21.590;2022-08-01T17:54:09;99833.67;;;23.89;45.17
51524;BME280;37610;51.790;21.590;2022-08-01T17:58:10;99835.11;;;23.72;45.62
51524;BME280;37610;51.790;21.590;2022-08-01T18:02:14;99840.52;;;23.53;45.74
51524;BME280;37610;51.790;21.590;2022-08-01T18:06:15;99840.41;;;23.25;52.19
51524;BME280;37610;51.790;21.590;2022-08-01T18:10:17;99844.30;;;22.90;49.91
51524;BME280;37610;51.790;21.590;2022-08-01T18:14:18;99850.61;;;22.63;50.86
51524;BME280;37610;51.790;21.590;2022-08-01T18:18:20;99854.42;;;22.42;49.86
51524;BME280;37610;51.790;21.590;2022-08-01T18:22:22;99851.85;;;22.25;50.48
51524;BME280;37610;51.790;21.590;2022-08-01T18:26:23;99855.14;;;22.09;51.20
51524;BME280;37610;51.790;21.590;2022-08-01T18:30:25;99863.33;;;21.97;50.93
51524;BME280;37610;51.790;21.590;2022-08-01T18:34:27;99867.50;;;21.84;51.62
51524;BME280;37610;51.790;21.590;2022-08-01T18:38:30;99866.21;;;21.79;52.32
51524;BME280;37610;51.790;21.590;2022-08-01T18:42:32;99874.20;;;21.69;54.61
51524;BME280;37610;51.790;21.590;2022-08-01T18:46:34;99881.40;;;21.60;53.91
51524;BME280;37610;51.790;21.590;2022-08-01T18:50:35;99887.84;;;21.56;53.85
51524;BME280;37610;51.790;21.590;2022-08-01T18:54:36;99892.98;;;21.52;54.27
51524;BME280;37610;51.790;21.590;2022-08-01T18:58:38;99898.39;;;21.45;54.37
51524;BME280;37610;51.790;21.590;2022-08-01T19:02:40;99904.36;;;21.39;54.24
51524;BME280;37610;51.790;21.590;2022-08-01T19:06:42;99905.91;;;21.35;54.96
51524;BME280;37610;51.790;21.590;2022-08-01T19:10:43;99905.23;;;21.22;60.00
51524;BME280;37610;51.790;21.590;2022-08-01T19:14:45;99902.85;;;20.98;58.57
51524;BME280;37610;51.790;21.590;2022-08-01T19:18:46;99905.73;;;20.94;57.57
51524;BME280;37610;51.790;21.590;2022-08-01T19:22:47;99908.86;;;20.95;57.17
51524;BME280;37610;51.790;21.590;2022-08-01T19:26:52;99916.48;;;20.94;57.42
51524;BME280;37610;51.790;21.590;2022-08-01T19:30:54;99916.25;;;20.89;57.58
51524;BME280;37610;51.790;21.590;2022-08-01T19:34:59;99916.64;;;20.87;57.49
51524;BME280;37610;51.790;21.590;2022-08-01T19:39:03;99922.40;;;20.85;57.68
51524;BME280;37610;51.790;21.590;2022-08-01T19:43:06;99926.66;;;20.82;58.00
51524;BME280;37610;51.790;21.590;2022-08-01T19:47:10;99929.10;;;20.80;58.10
51524;BME280;37610;51.790;21.590;2022-08-01T19:51:13;99921.29;;;20.77;58.36
51524;BME280;37610;51.790;21.590;2022-08-01T19:55:15;99920.11;;;20.75;58.53
51524;BME280;37610;51.790;21.590;2022-08-01T19:59:21;99921.81;;;20.72;58.88
51524;BME280;37610;51.790;21.590;2022-08-01T20:03:22;99920.04;;;20.72;59.18
51524;BME280;37610;51.790;21.590;2022-08-01T20:07:24;99928.08;;;20.73;59.65
51524;BME280;37610;51.790;21.590;2022-08-01T20:11:26;99930.20;;;20.70;59.83
51524;BME280;37610;51.790;21.590;2022-08-01T20:15:28;99928.97;;;20.69;60.49
51524;BME280;37610;51.790;21.590;2022-08-01T20:19:30;99925.11;;;20.68;60.41
51524;BME280;37610;51.790;21.590;2022-08-01T20:23:32;99921.77;;;20.70;60.57
51524;BME280;37610;51.790;21.590;2022-08-01T20:27:36;99920.11;;;20.71;60.22
51524;BME280;37610;51.790;21.590;2022-08-01T20:31:39;99920.67;;;20.72;60.17
51524;BME280;37610;51.790;21.590;2022-08-01T20:35:43;99920.04;;;20.72;60.04
51524;BME280;37610;51.790;21.590;2022-08-01T20:39:45;99923.46;;;20.73;60.33
51524;BME280;37610;51.790;21.590;2022-08-01T20:43:46;99926.64;;;20.72;60.26
51524;BME280;37610;51.790;21.590;2022-08-01T20:47:48;99924.34;;;20.64;63.31
51524;BME280;37610;51.790;21.590;2022-08-01T20:51:49;99929.17;;;20.55;61.75
51524;BME280;37610;51.790;21.590;2022-08-01T20:55:53;99926.31;;;20.56;62.31
51524;BME280;37610;51.790;21.590;2022-08-01T21:00:00;99923.45;;;20.54;62.19
51524;BME280;37610;51.790;21.590;2022-08-01T21:08:08;99918.52;;;20.59;62.16
51524;BME280;37610;51.790;21.590;2022-08-01T21:12:16;99918.84;;;20.60;62.07
51524;BME280;37610;51.790;21.590;2022-08-01T21:16:22;99920.45;;;20.59;62.31
51524;BME280;37610;51.790;21.590;2022-08-01T21:20:26;99921.70;;;20.57;62.25
51524;BME280;37610;51.790;21.590;2022-08-01T21:24:33;99923.02;;;20.58;62.40
51524;BME280;37610;51.790;21.590;2022-08-01T21:28:43;99923.84;;;20.58;62.38
51524;BME280;37610;51.790;21.590;2022-08-01T21:32:46;99928.20;;;20.56;62.30
51524;BME280;37610;51.790;21.590;2022-08-01T21:36:49;99937.55;;;20.54;62.73
51524;BME280;37610;51.790;21.590;2022-08-01T21:40:50;99936.89;;;20.50;62.63
51524;BME280;37610;51.790;21.590;2022-08-01T21:44:54;99939.95;;;20.47;62.61
51524;BME280;37610;51.790;21.590;2022-08-01T21:48:56;99941.81;;;20.43;62.71
51524;BME280;37610;51.790;21.590;2022-08-01T22:01:32;99951.91;;;20.27;62.76